createdAt,value
2023-05-24T00:00:27.011Z,19.41
2023-05-24T00:02:54.449Z,19.40
2023-05-24T00:05:19.635Z,19.38
2023-05-24T00:06:28.615Z,19.31
2023-05-24T00:08:54.000Z,19.49
2023-05-24T00:11:22.648Z,19.57
2023-05-24T00:13:49.230Z,19.55
2023-05-24T00:16:16.254Z,19.56
2023-05-24T00:18:41.179Z,19.51
2023-05-24T00:21:08.115Z,19.44
2023-05-24T00:23:32.348Z,19.47
2023-05-24T00:24:45.525Z,19.34
2023-05-24T00:27:11.690Z,19.48
2023-05-24T00:29:37.532Z,19.44
2023-05-24T00:32:03.705Z,19.48
2023-05-24T00:34:48.319Z,19.45
2023-05-24T00:35:57.962Z,19.32
2023-05-24T00:37:08.071Z,19.31
2023-05-24T00:39:32.538Z,19.39
2023-05-24T00:40:43.723Z,19.30
2023-05-24T00:43:08.101Z,19.45
2023-05-24T00:44:17.222Z,19.36
2023-05-24T00:46:42.068Z,19.57
2023-05-24T00:47:58.285Z,19.50
2023-05-24T00:50:23.284Z,19.67
2023-05-24T00:52:51.195Z,19.52
2023-05-24T00:54:01.317Z,19.34
2023-05-24T00:56:27.982Z,19.44
2023-05-24T00:58:56.971Z,19.45
2023-05-24T01:01:29.058Z,19.46
2023-05-24T01:03:53.800Z,19.46
2023-05-24T01:06:19.826Z,19.35
2023-05-24T01:09:05.601Z,19.20
2023-05-24T01:10:17.430Z,19.12
2023-05-24T01:13:02.401Z,19.25
2023-05-24T01:15:40.745Z,19.37
2023-05-24T01:18:36.213Z,19.37
2023-05-24T01:21:38.267Z,19.31
2023-05-24T01:24:32.838Z,19.24
2023-05-24T01:27:25.542Z,19.15
2023-05-24T01:28:34.932Z,18.94
2023-05-24T01:31:01.778Z,19.00
2023-05-24T01:33:27.804Z,18.97
2023-05-24T01:35:54.504Z,19.05
2023-05-24T01:38:20.047Z,19.16
2023-05-24T01:40:49.651Z,19.18
2023-05-24T01:42:28.063Z,19.02
2023-05-24T01:45:03.063Z,19.13
2023-05-24T01:46:33.447Z,19.05
2023-05-24T01:49:35.070Z,19.01
2023-05-24T01:52:16.701Z,19.03
2023-05-24T01:54:47.172Z,19.14
2023-05-24T01:57:15.127Z,19.10
2023-05-24T01:58:27.020Z,18.95
2023-05-24T02:00:55.494Z,19.03
2023-05-24T02:03:21.949Z,19.00
2023-05-24T02:04:32.260Z,18.88
2023-05-24T02:06:57.767Z,19.04
2023-05-24T02:08:07.404Z,18.93
2023-05-24T02:09:17.276Z,18.91
2023-05-24T02:11:49.026Z,19.07
2023-05-24T02:14:34.119Z,19.23
2023-05-24T02:17:00.547Z,19.35
2023-05-24T02:19:26.736Z,19.46
2023-05-24T02:21:52.910Z,19.48
2023-05-24T02:24:18.752Z,19.44
2023-05-24T02:26:43.792Z,19.33
2023-05-24T02:29:10.130Z,19.39
2023-05-24T02:31:35.437Z,19.42
2023-05-24T02:32:47.277Z,19.27
2023-05-24T02:33:57.974Z,19.26
2023-05-24T02:35:07.996Z,19.21
2023-05-24T02:37:33.095Z,19.19
2023-05-24T02:39:59.206Z,19.19
2023-05-24T02:42:24.700Z,19.13
2023-05-24T02:44:51.586Z,19.05
2023-05-24T02:47:16.063Z,19.06
2023-05-24T02:49:42.821Z,19.03
2023-05-24T02:50:52.056Z,18.91
2023-05-24T02:53:17.632Z,18.98
2023-05-24T02:54:26.844Z,18.83
2023-05-24T02:56:55.450Z,19.02
2023-05-24T02:59:23.630Z,19.07
2023-05-24T03:01:48.027Z,19.18
2023-05-24T03:04:16.003Z,19.26
2023-05-24T03:05:25.611Z,19.18
2023-05-24T03:07:49.394Z,19.34
2023-05-24T03:10:15.799Z,19.39
2023-05-24T03:12:42.723Z,19.47
2023-05-24T03:13:54.005Z,19.37
2023-05-24T03:16:19.842Z,19.52
2023-05-24T03:18:47.074Z,19.50
2023-05-24T03:21:12.691Z,19.49
2023-05-24T03:23:38.146Z,19.49
2023-05-24T03:24:48.651Z,19.38
2023-05-24T03:25:59.896Z,19.38
2023-05-24T03:28:24.749Z,19.51
2023-05-24T03:30:51.474Z,19.49
2023-05-24T03:33:17.186Z,19.42
2023-05-24T03:35:41.959Z,19.44
2023-05-24T03:36:52.830Z,19.35
2023-05-24T03:38:02.743Z,19.38
2023-05-24T03:40:30.424Z,19.48
2023-05-24T03:41:41.446Z,19.39
2023-05-24T03:42:52.367Z,19.42
2023-05-24T03:45:27.092Z,19.61
2023-05-24T03:47:48.335Z,19.62
2023-05-24T03:50:14.609Z,19.68
2023-05-24T03:52:41.935Z,19.76
2023-05-24T03:55:06.775Z,19.80
2023-05-24T03:57:30.936Z,19.67
2023-05-24T03:59:56.355Z,19.61
2023-05-24T04:02:21.557Z,19.57
2023-05-24T04:03:33.457Z,19.45
2023-05-24T04:04:43.304Z,19.46
2023-05-24T04:07:10.266Z,19.56
2023-05-24T04:08:20.504Z,19.46
2023-05-24T04:09:29.198Z,19.48
2023-05-24T04:11:54.480Z,19.68
2023-05-24T04:14:22.357Z,19.65
2023-05-24T04:16:48.739Z,19.65
2023-05-24T04:17:58.489Z,19.56
2023-05-24T04:19:08.727Z,19.54
2023-05-24T04:21:36.921Z,19.69
2023-05-24T04:22:50.332Z,19.60
2023-05-24T04:25:17.115Z,19.69
2023-05-24T04:26:26.388Z,19.61
2023-05-24T04:28:52.051Z,19.87
2023-05-24T04:30:01.695Z,19.84
2023-05-24T04:32:30.182Z,20.08
2023-05-24T04:34:55.994Z,20.09
2023-05-24T04:37:21.990Z,20.06
2023-05-24T04:39:48.450Z,20.08
2023-05-24T04:40:59.870Z,19.99
2023-05-24T04:43:43.118Z,20.21
2023-05-24T04:44:52.803Z,20.15
2023-05-24T04:46:02.562Z,20.17
2023-05-24T04:47:13.581Z,20.19
2023-05-24T04:49:40.805Z,20.27
2023-05-24T04:50:56.293Z,20.19
2023-05-24T04:53:40.971Z,20.45
2023-05-24T04:56:07.977Z,20.59
2023-05-24T04:58:32.975Z,20.68
2023-05-24T05:00:57.405Z,20.75
2023-05-24T05:03:21.156Z,20.75
2023-05-24T05:05:47.149Z,20.75
2023-05-24T05:08:11.050Z,20.96
2023-05-24T05:10:37.063Z,21.07
2023-05-24T05:13:03.709Z,21.22
2023-05-24T05:14:14.431Z,21.14
2023-05-24T05:16:40.765Z,21.42
2023-05-24T05:19:05.373Z,21.57
2023-05-24T05:21:35.417Z,21.66
2023-05-24T05:24:03.600Z,21.75
2023-05-24T05:26:28.304Z,22.01
2023-05-24T05:29:11.362Z,22.16
2023-05-24T05:31:36.462Z,22.22
2023-05-24T05:34:01.839Z,22.39
2023-05-24T05:36:27.752Z,22.41
2023-05-24T05:38:51.506Z,22.45
2023-05-24T05:41:15.579Z,22.52
2023-05-24T05:42:26.185Z,22.47
2023-05-24T05:43:36.401Z,22.54
2023-05-24T05:44:46.883Z,22.64
2023-05-24T05:47:12.904Z,23.08
2023-05-24T05:49:38.743Z,23.30
2023-05-24T05:50:48.784Z,23.28
2023-05-24T05:53:12.611Z,23.68
2023-05-24T05:55:37.075Z,24.03
2023-05-24T05:56:48.406Z,24.12
2023-05-24T05:59:13.028Z,24.45
2023-05-24T06:00:23.278Z,24.42
2023-05-24T06:01:33.356Z,24.46
2023-05-24T06:03:58.130Z,24.65
2023-05-24T06:05:08.409Z,24.61
2023-05-24T06:07:35.925Z,24.82
2023-05-24T06:10:01.003Z,25.05
2023-05-24T06:12:26.051Z,25.40
2023-05-24T06:15:20.647Z,25.67
2023-05-24T06:16:30.579Z,25.73
2023-05-24T06:19:05.880Z,26.14
2023-05-24T06:21:27.545Z,26.31
2023-05-24T06:22:38.316Z,26.30
2023-05-24T06:25:04.437Z,26.79
2023-05-24T06:27:28.314Z,27.05
2023-05-24T06:30:15.134Z,27.13
2023-05-24T06:32:59.940Z,27.30
2023-05-24T06:34:09.722Z,27.32
2023-05-24T06:36:35.796Z,27.66
2023-05-24T06:37:45.578Z,27.56
2023-05-24T06:40:10.672Z,27.61
2023-05-24T06:42:39.010Z,27.46
2023-05-24T06:43:48.619Z,27.37
2023-05-24T06:46:13.041Z,27.59
2023-05-24T06:48:38.395Z,27.77
2023-05-24T06:51:03.475Z,27.71
2023-05-24T06:52:13.896Z,27.52
2023-05-24T06:53:23.726Z,27.44
2023-05-24T06:55:48.663Z,27.38
2023-05-24T06:58:15.999Z,27.42
2023-05-24T07:03:09.601Z,27.67
2023-05-24T07:05:35.181Z,27.48
2023-05-24T07:08:01.602Z,27.38
2023-05-24T07:10:27.987Z,27.68
2023-05-24T07:12:53.107Z,27.90
2023-05-24T07:15:16.769Z,27.80
2023-05-24T07:17:40.890Z,28.11
2023-05-24T07:20:10.239Z,28.22
2023-05-24T07:22:33.975Z,28.28
2023-05-24T07:24:57.940Z,28.32
2023-05-24T07:27:22.592Z,28.17
2023-05-24T07:28:32.557Z,28.00
2023-05-24T07:29:41.315Z,27.93
2023-05-24T07:30:51.161Z,27.81
2023-05-24T07:32:00.857Z,27.72
2023-05-24T07:34:29.109Z,27.87
2023-05-24T07:35:39.606Z,27.80
2023-05-24T07:38:04.085Z,27.97
2023-05-24T07:40:37.732Z,27.92
2023-05-24T07:43:03.829Z,27.81
2023-05-24T07:44:14.620Z,27.72
2023-05-24T07:46:39.232Z,27.39
2023-05-24T07:49:04.283Z,27.56
2023-05-24T07:51:28.319Z,27.38
2023-05-24T07:53:53.574Z,27.24
2023-05-24T07:56:18.094Z,27.03
2023-05-24T07:57:33.874Z,26.85
2023-05-24T08:00:02.201Z,27.15
2023-05-24T08:02:30.902Z,27.09
2023-05-24T08:04:55.118Z,27.01
2023-05-24T08:07:21.984Z,27.07
2023-05-24T08:09:47.146Z,27.17
2023-05-24T08:12:16.981Z,27.16
2023-05-24T08:14:40.162Z,27.02
2023-05-24T08:17:04.746Z,27.01
2023-05-24T08:19:30.779Z,26.93
2023-05-24T08:21:57.309Z,27.04
2023-05-24T08:23:06.716Z,26.96
2023-05-24T08:25:32.542Z,27.11
2023-05-24T08:26:43.160Z,26.96
2023-05-24T08:29:08.113Z,27.02
2023-05-24T08:31:33.429Z,27.11
2023-05-24T08:33:59.588Z,26.88
2023-05-24T08:36:24.551Z,26.95
2023-05-24T08:37:33.203Z,26.89
2023-05-24T08:39:59.334Z,26.84
2023-05-24T08:42:30.808Z,26.75
2023-05-24T08:45:07.222Z,26.75
2023-05-24T08:47:34.304Z,26.87
2023-05-24T08:50:07.213Z,26.81
2023-05-24T08:52:32.972Z,26.80
2023-05-24T08:55:01.680Z,26.83
2023-05-24T08:57:33.975Z,26.77
2023-05-24T08:59:59.871Z,26.60
2023-05-24T09:02:27.929Z,26.60
2023-05-24T09:04:54.277Z,26.57
2023-05-24T09:06:06.112Z,26.41
2023-05-24T09:08:38.237Z,26.42
2023-05-24T09:11:16.047Z,26.18
2023-05-24T09:13:45.599Z,26.18
2023-05-24T09:16:12.106Z,26.00
2023-05-24T09:17:22.390Z,25.93
2023-05-24T09:19:50.051Z,25.95
2023-05-24T09:22:15.311Z,25.97
2023-05-24T09:23:26.752Z,25.86
2023-05-24T09:25:58.085Z,26.12
2023-05-24T09:28:24.494Z,25.84
2023-05-24T09:31:07.161Z,25.99
2023-05-24T09:32:15.959Z,25.96
2023-05-24T09:33:33.035Z,25.99
2023-05-24T09:37:26.702Z,25.93
2023-05-24T09:39:52.151Z,25.79
2023-05-24T09:42:25.986Z,25.52
2023-05-24T09:45:07.650Z,25.67
2023-05-24T09:47:35.520Z,25.69
2023-05-24T09:49:03.319Z,25.69
2023-05-24T09:51:31.954Z,25.95
2023-05-24T09:53:59.605Z,26.13
2023-05-24T09:56:36.471Z,25.95
2023-05-24T09:59:07.991Z,25.99
2023-05-24T10:00:25.326Z,25.88
2023-05-24T10:01:38.185Z,25.93
2023-05-24T10:04:13.941Z,26.16
2023-05-24T10:06:43.311Z,26.22
2023-05-24T10:07:56.002Z,26.05
2023-05-24T10:09:07.274Z,26.10
2023-05-24T10:10:17.417Z,26.08
2023-05-24T10:13:02.216Z,26.23
2023-05-24T10:15:28.552Z,26.31
2023-05-24T10:17:55.069Z,26.33
2023-05-24T10:20:22.500Z,26.37
2023-05-24T10:21:32.278Z,26.20
2023-05-24T10:24:06.925Z,25.82
2023-05-24T10:26:43.996Z,25.87
2023-05-24T10:29:17.374Z,26.05
2023-05-24T10:32:05.787Z,26.17
2023-05-24T10:33:16.235Z,26.11
2023-05-24T10:35:44.607Z,26.35
2023-05-24T10:38:11.214Z,26.25
2023-05-24T10:42:09.597Z,26.28
2023-05-24T10:44:33.349Z,26.04
2023-05-24T10:45:42.514Z,25.95
2023-05-24T10:48:33.220Z,25.83
2023-05-24T10:49:54.861Z,25.62
2023-05-24T10:52:56.650Z,25.66
2023-05-24T10:55:36.194Z,25.51
2023-05-24T10:58:06.270Z,25.48
2023-05-24T11:41:17.004Z,25.05
2023-05-24T11:42:28.375Z,25.01
2023-05-24T11:45:00.410Z,25.05
2023-05-24T11:47:26.510Z,25.06
2023-05-24T11:48:37.040Z,24.94
2023-05-24T11:51:06.459Z,25.10
2023-05-24T11:52:15.667Z,24.93
2023-05-24T11:54:40.294Z,25.17
2023-05-24T11:57:06.432Z,25.21
2023-05-24T11:58:26.927Z,25.19
2023-05-24T12:00:52.721Z,25.47
2023-05-24T12:02:05.321Z,25.38
2023-05-24T12:04:49.473Z,25.53
2023-05-24T12:07:18.696Z,25.64
2023-05-24T12:08:28.284Z,25.60
2023-05-24T12:09:38.992Z,25.67
2023-05-24T12:12:07.026Z,25.88
2023-05-24T12:14:40.330Z,25.91
2023-05-24T12:17:11.226Z,25.94
2023-05-24T12:19:39.401Z,26.04
2023-05-24T12:20:50.323Z,25.99
2023-05-24T12:23:16.730Z,26.12
2023-05-24T12:24:26.218Z,26.03
2023-05-24T12:26:53.211Z,26.16
2023-05-24T12:28:03.751Z,26.07
2023-05-24T12:29:14.293Z,26.07
2023-05-24T12:31:46.942Z,26.20
2023-05-24T12:32:57.514Z,26.11
2023-05-24T12:34:08.180Z,26.07
2023-05-24T12:36:36.544Z,26.09
2023-05-24T12:37:45.979Z,26.00
2023-05-24T12:40:20.473Z,26.14
2023-05-24T12:44:24.910Z,26.13
2023-05-24T12:45:35.357Z,26.04
2023-05-24T12:46:45.673Z,26.04
2023-05-24T12:49:12.348Z,26.15
2023-05-24T12:51:38.534Z,26.19
2023-05-24T12:54:04.895Z,26.15
2023-05-24T12:56:32.076Z,26.16
2023-05-24T12:58:58.592Z,26.14
2023-05-24T13:01:25.584Z,26.12
2023-05-24T13:02:34.403Z,26.04
2023-05-24T13:04:59.124Z,26.07
2023-05-24T13:06:08.967Z,25.96
2023-05-24T13:08:33.714Z,25.98
2023-05-24T13:10:58.377Z,25.93
2023-05-24T13:12:08.896Z,25.80
2023-05-24T13:14:35.000Z,25.91
2023-05-24T13:17:00.771Z,25.82
2023-05-24T13:19:25.660Z,25.78
2023-05-24T13:22:02.262Z,25.54
2023-05-24T13:24:27.724Z,25.55
2023-05-24T13:25:36.668Z,25.46
2023-05-24T13:28:03.682Z,25.70
2023-05-24T13:30:29.655Z,25.84
2023-05-24T13:33:12.955Z,25.71
2023-05-24T13:35:42.486Z,25.87
2023-05-24T13:38:09.372Z,25.84
2023-05-24T13:40:34.821Z,25.86
2023-05-24T13:43:01.303Z,25.86
2023-05-24T13:45:25.095Z,25.90
2023-05-24T13:47:52.798Z,25.56
2023-05-24T13:49:02.891Z,25.47
2023-05-24T13:51:30.138Z,25.50
2023-05-24T13:53:55.900Z,25.48
2023-05-24T13:56:21.851Z,25.54
2023-05-24T13:58:46.225Z,25.67
2023-05-24T14:01:11.809Z,25.85
2023-05-24T14:02:22.597Z,25.65
2023-05-24T14:04:47.983Z,25.92
2023-05-24T14:07:13.663Z,26.08
2023-05-24T14:09:37.305Z,26.18
2023-05-24T14:12:07.640Z,26.17
2023-05-24T14:15:44.790Z,26.08
2023-05-24T14:16:55.749Z,25.98
2023-05-24T14:18:06.352Z,26.08
2023-05-24T14:20:32.268Z,26.24
2023-05-24T14:22:58.400Z,26.28
2023-05-24T14:24:07.567Z,26.22
2023-05-24T14:26:32.678Z,26.06
2023-05-24T14:28:59.387Z,26.20
2023-05-24T14:31:24.371Z,26.23
2023-05-24T14:32:35.621Z,26.05
2023-05-24T14:33:45.479Z,25.95
2023-05-24T14:34:55.127Z,25.80
2023-05-24T14:36:04.938Z,25.88
2023-05-24T14:38:28.343Z,25.62
2023-05-24T14:40:52.897Z,25.63
2023-05-24T14:42:02.955Z,25.48
2023-05-24T14:43:13.056Z,25.44
2023-05-24T14:45:40.670Z,25.67
2023-05-24T14:46:53.157Z,25.60
2023-05-24T14:48:03.607Z,25.52
2023-05-24T14:50:32.150Z,25.42
2023-05-24T14:53:01.826Z,25.47
2023-05-24T14:54:12.545Z,25.18
2023-05-24T14:56:38.286Z,25.14
2023-05-24T14:59:03.014Z,25.37
2023-05-24T15:01:27.901Z,25.52
2023-05-24T15:03:53.509Z,25.46
2023-05-24T15:06:17.888Z,25.49
2023-05-24T15:08:41.952Z,25.38
2023-05-24T15:11:05.752Z,25.43
2023-05-24T15:13:30.572Z,25.52
2023-05-24T15:14:40.730Z,25.38
2023-05-24T15:17:05.063Z,25.32
2023-05-24T15:19:29.791Z,25.38
2023-05-24T15:21:56.127Z,25.09
2023-05-24T15:24:20.499Z,24.88
2023-05-24T15:26:44.424Z,24.83
2023-05-24T15:29:10.650Z,24.65
2023-05-24T15:31:39.132Z,24.84
2023-05-24T15:32:48.259Z,24.72
2023-05-24T15:35:14.529Z,24.68
2023-05-24T15:37:41.052Z,24.67
2023-05-24T15:40:09.744Z,24.76
2023-05-24T15:41:24.309Z,24.70
2023-05-24T15:42:35.567Z,24.73
2023-05-24T15:44:59.974Z,24.90
2023-05-24T15:47:26.705Z,24.80
2023-05-24T15:49:53.135Z,24.87
2023-05-24T15:51:39.726Z,24.72
2023-05-24T15:52:14.230Z,24.40
2023-05-24T15:54:39.634Z,24.62
2023-05-24T15:57:04.019Z,24.62
2023-05-24T15:59:30.499Z,24.74
2023-05-24T16:00:42.107Z,24.62
2023-05-24T16:01:51.531Z,24.60
2023-05-24T16:04:17.568Z,24.70
2023-05-24T16:06:44.191Z,24.75
2023-05-24T16:07:52.736Z,24.68
2023-05-24T16:10:17.356Z,24.87
2023-05-24T16:11:27.765Z,24.75
2023-05-24T16:13:53.870Z,24.82
2023-05-24T16:16:18.183Z,24.81
2023-05-24T16:18:42.290Z,24.85
2023-05-24T16:19:52.203Z,24.75
2023-05-24T16:21:01.145Z,24.76
2023-05-24T16:22:10.523Z,24.76
2023-05-24T16:24:41.245Z,24.87
2023-05-24T16:27:09.294Z,24.85
2023-05-24T16:29:37.239Z,24.88
2023-05-24T16:32:01.200Z,24.90
2023-05-24T16:33:11.583Z,24.81
2023-05-24T16:34:24.009Z,24.83
2023-05-24T16:36:49.314Z,24.97
2023-05-24T16:39:15.542Z,24.89
2023-05-24T16:41:41.985Z,24.92
2023-05-24T16:42:53.754Z,24.82
2023-05-24T16:45:20.319Z,24.89
2023-05-24T16:46:30.167Z,24.78
2023-05-24T16:48:55.672Z,24.88
2023-05-24T16:51:22.889Z,24.88
2023-05-24T16:53:46.784Z,24.87
2023-05-24T16:56:10.341Z,24.85
2023-05-24T16:58:36.856Z,24.77
2023-05-24T16:59:47.759Z,24.65
2023-05-24T17:02:14.448Z,24.67
2023-05-24T17:04:45.699Z,24.62
2023-05-24T17:07:12.286Z,24.58
2023-05-24T17:09:38.546Z,24.59
2023-05-24T17:12:06.517Z,24.62
2023-05-24T17:14:32.024Z,24.64
2023-05-24T17:17:07.051Z,24.61
2023-05-24T17:19:32.284Z,24.55
2023-05-24T17:20:42.552Z,24.40
2023-05-24T17:23:06.979Z,24.45
2023-05-24T17:25:31.711Z,24.39
2023-05-24T17:27:56.927Z,24.29
2023-05-24T17:29:06.143Z,24.14
2023-05-24T17:31:32.671Z,24.20
2023-05-24T17:33:57.975Z,24.14
2023-05-24T17:35:07.973Z,24.02
2023-05-24T17:37:31.940Z,24.09
2023-05-24T17:39:57.122Z,24.08
2023-05-24T17:42:24.785Z,24.06
2023-05-24T17:44:53.018Z,24.05
2023-05-24T17:47:22.719Z,24.08
2023-05-24T17:48:37.556Z,23.97
2023-05-24T17:51:01.798Z,24.08
2023-05-24T17:53:33.077Z,24.08
2023-05-24T17:54:41.854Z,23.97
2023-05-24T17:57:07.386Z,24.09
2023-05-24T17:59:34.176Z,24.06
2023-05-24T18:01:57.923Z,24.05
2023-05-24T18:04:22.740Z,23.97
2023-05-24T18:05:33.487Z,23.85
2023-05-24T18:06:44.961Z,23.85
2023-05-24T18:07:54.039Z,23.86
2023-05-24T18:10:20.122Z,23.99
2023-05-24T18:12:44.411Z,24.04
2023-05-24T18:15:08.677Z,24.02
2023-05-24T18:16:25.019Z,23.91
2023-05-24T18:19:10.786Z,24.03
2023-05-24T18:20:23.124Z,23.89
2023-05-24T18:21:32.073Z,23.81
2023-05-24T18:23:58.786Z,23.78
2023-05-24T18:26:23.442Z,23.77
2023-05-24T18:28:47.195Z,23.79
2023-05-24T18:29:57.806Z,23.70
2023-05-24T18:32:29.035Z,23.82
2023-05-24T18:33:39.946Z,23.71
2023-05-24T18:36:07.553Z,23.76
2023-05-24T18:38:36.081Z,23.74
2023-05-24T18:41:00.651Z,23.74
2023-05-24T18:43:26.041Z,23.73
2023-05-24T18:44:38.691Z,23.62
2023-05-24T18:47:03.379Z,23.73
2023-05-24T18:49:28.356Z,23.70
2023-05-24T18:51:52.432Z,23.68
2023-05-24T18:53:02.311Z,23.54
2023-05-24T18:55:28.589Z,23.59
2023-05-24T18:56:37.612Z,23.44
2023-05-24T18:57:46.327Z,23.42
2023-05-24T19:00:13.711Z,23.46
2023-05-24T19:01:23.722Z,23.33
2023-05-24T19:03:55.398Z,23.42
2023-05-24T19:06:24.431Z,23.39
2023-05-24T19:08:50.043Z,23.33
2023-05-24T19:09:58.836Z,23.22
2023-05-24T19:11:10.148Z,23.23
2023-05-24T19:12:19.232Z,23.25
2023-05-24T19:13:28.487Z,23.24
2023-05-24T19:15:54.406Z,23.34
2023-05-24T19:17:04.041Z,23.25
2023-05-24T19:19:29.860Z,23.28
2023-05-24T19:20:38.819Z,23.20
2023-05-24T19:23:02.747Z,23.32
2023-05-24T19:25:27.848Z,23.31
2023-05-24T19:27:59.060Z,23.31
2023-05-24T19:30:19.262Z,23.31
2023-05-24T19:32:44.489Z,23.31
2023-05-24T19:34:00.594Z,23.21
2023-05-24T19:36:23.530Z,23.27
2023-05-24T19:38:47.310Z,23.24
2023-05-24T19:41:12.549Z,23.20
2023-05-24T19:43:36.070Z,23.15
2023-05-24T19:46:01.182Z,23.10
2023-05-24T19:48:27.104Z,23.12
2023-05-24T19:51:00.130Z,23.11
2023-05-24T19:53:24.415Z,23.10
2023-05-24T19:55:48.160Z,23.08
2023-05-24T19:58:13.924Z,23.06
2023-05-24T20:00:38.687Z,23.04
2023-05-24T20:03:04.753Z,23.02
2023-05-24T20:05:29.719Z,23.04
2023-05-24T20:06:38.832Z,22.95
2023-05-24T20:09:03.519Z,22.99
2023-05-24T20:10:14.508Z,22.86
2023-05-24T20:11:24.723Z,22.84
2023-05-24T20:13:51.988Z,22.94
2023-05-24T20:16:17.882Z,22.90
2023-05-24T20:17:27.599Z,22.81
2023-05-24T20:19:53.501Z,22.94
2023-05-24T20:22:18.244Z,22.93
2023-05-24T20:24:42.336Z,22.89
2023-05-24T20:27:07.662Z,22.82
2023-05-24T20:29:32.254Z,22.80
2023-05-24T20:31:57.195Z,22.69
2023-05-24T20:34:21.069Z,22.69
2023-05-24T20:35:39.866Z,22.57
2023-05-24T20:36:48.783Z,22.55
2023-05-24T20:39:13.781Z,22.65
2023-05-24T20:41:39.867Z,22.63
2023-05-24T20:42:48.884Z,22.50
2023-05-24T20:45:13.091Z,22.62
2023-05-24T20:47:37.632Z,22.62
2023-05-24T20:50:03.476Z,22.60
2023-05-24T20:52:47.202Z,22.57
2023-05-24T20:53:56.109Z,22.45
2023-05-24T20:55:07.220Z,22.44
2023-05-24T20:57:33.053Z,22.52
2023-05-24T20:58:45.116Z,22.41
2023-05-24T21:01:10.104Z,22.51
2023-05-24T21:03:36.919Z,22.51
2023-05-24T21:04:47.107Z,22.41
2023-05-24T21:05:56.763Z,22.41
2023-05-24T21:08:20.986Z,22.48
2023-05-24T21:09:31.120Z,22.36
2023-05-24T21:11:55.206Z,22.41
2023-05-24T21:14:21.143Z,22.37
2023-05-24T21:15:31.225Z,22.23
2023-05-24T21:17:55.321Z,22.30
2023-05-24T21:20:19.160Z,22.26
2023-05-24T21:21:28.650Z,22.10
2023-05-24T21:23:52.688Z,22.15
2023-05-24T21:25:02.304Z,22.04
2023-05-24T21:27:27.683Z,22.10
2023-05-24T21:28:38.134Z,22.01
2023-05-24T21:29:48.605Z,22.02
2023-05-24T21:32:12.345Z,22.08
2023-05-24T21:34:37.050Z,22.07
2023-05-24T21:35:46.683Z,21.96
2023-05-24T21:38:11.570Z,22.09
2023-05-24T21:40:37.188Z,22.08
2023-05-24T21:43:03.935Z,22.06
2023-05-24T21:45:28.606Z,22.06
2023-05-24T21:46:38.575Z,21.93
2023-05-24T21:49:03.677Z,22.04
2023-05-24T21:51:29.344Z,22.06
2023-05-24T21:53:53.965Z,22.08
2023-05-24T21:55:10.174Z,21.98
2023-05-24T21:57:36.041Z,22.08
2023-05-24T21:58:45.702Z,21.99
2023-05-24T22:01:11.261Z,22.08
2023-05-24T22:02:22.065Z,21.95
2023-05-24T22:04:49.172Z,22.06
2023-05-24T22:07:13.848Z,22.04
2023-05-24T22:09:37.484Z,22.04
2023-05-24T22:10:46.562Z,21.94
2023-05-24T22:13:14.049Z,22.03
2023-05-24T22:14:23.684Z,21.91
2023-05-24T22:15:34.406Z,21.91
2023-05-24T22:18:01.123Z,22.01
2023-05-24T22:20:32.174Z,22.00
2023-05-24T22:23:00.432Z,21.98
2023-05-24T22:25:25.900Z,21.94
2023-05-24T22:27:50.723Z,21.93
2023-05-24T22:30:17.228Z,21.91
2023-05-24T22:32:47.151Z,21.87
2023-05-24T22:35:15.901Z,21.87
2023-05-24T22:37:40.226Z,21.87
2023-05-24T22:40:05.868Z,21.87
2023-05-24T22:42:31.320Z,21.80
2023-05-24T22:44:56.360Z,21.78
2023-05-24T22:47:22.683Z,21.75
2023-05-24T22:48:33.397Z,21.60
2023-05-24T22:50:59.578Z,21.65
2023-05-24T22:53:26.385Z,21.63
2023-05-24T22:55:51.250Z,21.67
2023-05-24T22:58:17.094Z,21.65
2023-05-24T22:59:26.600Z,21.52
2023-05-24T23:01:52.071Z,21.59
2023-05-24T23:04:21.502Z,21.52
2023-05-24T23:06:47.207Z,21.47
2023-05-24T23:07:58.931Z,21.37
2023-05-24T23:10:24.639Z,21.49
2023-05-24T23:12:51.662Z,21.47
2023-05-24T23:14:01.807Z,21.37
2023-05-24T23:15:14.162Z,21.35
2023-05-24T23:17:39.658Z,21.42
2023-05-24T23:20:06.381Z,21.39
2023-05-24T23:22:32.228Z,21.36
2023-05-24T23:23:42.443Z,21.19
2023-05-24T23:26:07.261Z,21.26
2023-05-24T23:28:33.061Z,21.28
2023-05-24T23:29:42.330Z,21.19
2023-05-24T23:32:10.033Z,21.33
2023-05-24T23:33:18.952Z,21.19
2023-05-24T23:35:44.194Z,21.09
2023-05-24T23:38:10.036Z,21.03
2023-05-24T23:40:37.938Z,21.09
2023-05-24T23:43:22.495Z,21.15
2023-05-24T23:45:48.495Z,21.20
2023-05-24T23:48:14.983Z,21.31
2023-05-24T23:50:50.516Z,21.31
2023-05-24T23:51:52.228Z,21.19
2023-05-24T23:53:03.925Z,21.20
2023-05-24T23:55:31.685Z,21.32
2023-05-24T23:57:59.079Z,21.31
2023-05-24T23:59:08.505Z,21.19
